Time;durP1;ratioP1;P1;durP2;ratioP2;P2;SDS_P1;SDS_P2;PMS_P1;PMS_P2;Temp;Humidity;BMP_temperature;BMP_pressure;BME280_temperature;BME280_humidity;BME280_pressure;Samples;Min_cycle;Max_cycle;Signal;HPM_P1;HPM_P2
2021/04/23 09:40:48;;;;;;;16.87;4.50;;;;;;;18.85;91.39;100198.65;1831299;77;23152;-70
2021/04/23 09:43:16;;;;;;;4.22;3.37;;;;;;;19.12;79.20;100202.87;1792496;80;21254;-69
2021/04/23 09:45:54;;;;;;;7.78;3.52;;;;;;;19.28;85.44;100191.88;1773081;80;21132;-67
2021/04/23 09:48:24;;;;;;;8.43;4.12;;;;;;;19.43;82.33;100201.12;1787102;80;21128;-68
2021/04/23 09:50:53;;;;;;;7.40;3.83;;;;;;;19.37;85.13;100188.33;1759226;80;21129;-67
2021/04/23 09:53:31;;;;;;;8.83;3.92;;;;;;;19.32;89.90;100193.64;1772073;80;21096;-68
2021/04/23 09:55:59;;;;;;;9.30;4.80;;;;;;;19.26;90.66;100187.67;1784752;80;21298;-67
2021/04/23 09:58:27;;;;;;;7.47;3.47;;;;;;;19.37;89.66;100182.84;1788679;80;21124;-68
2021/04/23 10:00:58;;;;;;;7.25;4.70;;;;;;;19.82;88.10;100194.94;1789815;80;21159;-69
2021/04/23 10:03:33;;;;;;;8.95;4.25;;;;;;;20.04;86.67;100179.37;1787999;80;21139;-71
2021/04/23 10:06:21;;;;;;;11.20;4.58;;;;;;;19.99;87.36;100177.86;1763569;81;21134;-70
2021/04/23 10:08:49;;;;;;;16.85;8.70;;;;;;;20.05;86.71;100172.84;1763209;81;21116;-71
2021/04/23 10:11:17;;;;;;;16.42;7.53;;;;;;;20.14;80.10;100176.94;1765284;80;21123;-72
2021/04/23 10:13:45;;;;;;;7.60;3.95;;;;;;;20.04;79.31;100170.63;1771263;80;21124;-71
2021/04/23 10:16:15;;;;;;;11.90;3.27;;;;;;;20.18;77.12;100159.47;1787642;80;21092;-69
2021/04/23 10:18:44;;;;;;;4.58;3.40;;;;;;;20.30;75.01;100155.70;1757100;80;21123;-69
2021/04/23 10:21:12;;;;;;;7.25;3.40;;;;;;;20.32;75.29;100154.09;1786183;80;21132;-69
2021/04/23 10:23:40;;;;;;;11.53;3.98;;;;;;;20.44;77.70;100143.16;1786911;80;21151;-68
2021/04/23 10:26:08;;;;;;;4.10;3.12;;;;;;;20.61;75.58;100146.06;1764534;81;21245;-67
2021/04/23 10:28:36;;;;;;;6.95;3.58;;;;;;;20.58;76.49;100145.19;1784783;80;21258;-68
2021/04/23 10:31:04;;;;;;;9.33;3.60;;;;;;;20.56;76.72;100137.72;1775366;79;21139;-68
2021/04/23 10:33:33;;;;;;;10.08;4.53;;;;;;;20.52;75.19;100131.00;1789163;80;21112;-70
2021/04/23 10:36:02;;;;;;;13.60;4.20;;;;;;;20.39;74.94;100123.80;1785842;80;21275;-67
2021/04/23 10:38:37;;;;;;;6.08;3.87;;;;;;;20.15;78.21;100136.59;1790057;80;21156;-70
2021/04/23 10:41:07;;;;;;;5.62;3.58;;;;;;;20.03;80.02;100137.38;1751680;81;21163;-65
2021/04/23 10:43:36;;;;;;;4.78;3.25;;;;;;;20.00;79.18;100130.98;1741519;82;21517;-69
2021/04/23 10:46:15;;;;;;;11.63;3.50;;;;;;;19.98;79.20;100119.40;1741412;82;21139;-67
2021/04/23 10:48:45;;;;;;;6.37;3.02;;;;;;;20.05;73.51;100124.27;1740369;82;21323;-67
2021/04/23 10:51:25;;;;;;;14.90;4.37;;;;;;;20.12;77.32;100107.71;1664898;86;21168;-67
2021/04/23 10:53:56;;;;;;;6.42;3.80;;;;;;;20.22;79.82;100099.77;1650968;86;21195;-67
2021/04/23 10:56:34;;;;;;;11.03;4.20;;;;;;;20.31;77.25;100104.39;1653776;86;21559;-71
2021/04/23 10:59:32;;;;;;;4.20;3.50;;;;;;;20.28;76.98;100108.97;1664702;86;21195;-67
2021/04/23 11:02:15;;;;;;;6.15;3.50;;;;;;;20.21;71.63;100100.81;1660561;86;21213;-65
2021/04/23 11:05:00;;;;;;;11.43;4.78;;;;;;;20.02;73.07;100097.27;1656711;86;21316;-66
2021/04/23 11:07:30;;;;;;;9.90;3.77;;;;;;;19.94;75.73;100106.36;1667643;86;21555;-68
2021/04/23 11:10:05;;;;;;;10.08;3.87;;;;;;;19.90;75.56;100101.36;1636007;87;21318;-66
2021/04/23 11:12:33;;;;;;;6.05;3.67;;;;;;;19.86;75.88;100090.52;1661738;86;21188;-65
2021/04/23 11:15:12;;;;;;;3.77;3.35;;;;;;;19.72;78.65;100090.36;1664673;86;21180;-65
2021/04/23 11:17:40;;;;;;;8.23;4.10;;;;;;;19.72;80.34;100078.01;1651008;86;21171;-65
2021/04/23 11:20:32;;;;;;;6.58;3.50;;;;;;;19.72;80.43;100082.13;1656628;86;21176;-66
2021/04/23 11:23:01;;;;;;;11.93;3.87;;;;;;;19.69;77.79;100081.23;1665058;86;21212;-65
2021/04/23 11:25:29;;;;;;;9.15;3.85;;;;;;;19.89;75.67;100084.58;1664537;86;21216;-65
2021/04/23 11:28:05;;;;;;;4.70;3.27;;;;;;;20.01;71.47;100081.89;1657195;86;21370;-65
2021/04/23 11:31:01;;;;;;;6.37;4.00;;;;;;;19.97;71.44;100081.20;1650950;87;21199;-65
2021/04/23 11:33:56;;;;;;;9.68;3.80;;;;;;;19.93;74.48;100064.37;1835051;77;22622;-64
2021/04/23 11:36:36;;;;;;;5.05;3.90;;;;;;;19.79;74.08;100068.36;1797561;79;21144;-67
2021/04/23 11:39:12;;;;;;;6.85;3.85;;;;;;;19.60;74.22;100059.28;1791670;79;21160;-66
2021/04/23 11:42:17;;;;;;;10.55;3.77;;;;;;;19.54;77.87;100063.78;1801483;78;21077;-68
2021/04/23 11:44:52;;;;;;;6.65;3.50;;;;;;;19.44;78.44;100068.96;1785437;80;21123;-69
2021/04/23 11:47:34;;;;;;;12.95;8.05;;;;;;;19.18;80.95;100063.27;1790694;80;21252;-66
2021/04/23 11:50:18;;;;;;;5.15;3.75;;;;;;;19.05;82.39;100062.34;1790018;80;21132;-66
2021/04/23 11:52:54;;;;;;;20.05;4.50;;;;;;;19.06;82.92;100059.05;1790218;80;21517;-69
2021/04/23 11:55:27;;;;;;;11.38;3.75;;;;;;;19.21;77.88;100075.13;1791509;80;21593;-69
2021/04/23 11:58:06;;;;;;;;;;;;;;;19.35;66.70;100073.91;1778988;80;21208;-68
2021/04/23 12:00:34;;;;;;;14.43;4.65;;;;;;;19.40;64.73;100047.19;1789366;80;20148;-76
2021/04/23 12:03:06;;;;;;;19.32;4.78;;;;;;;19.29;58.46;100043.31;1792623;80;21120;-76
2021/04/23 12:05:58;;;;;;;18.10;4.78;;;;;;;18.82;59.47;100038.84;1804892;78;23154;-73
2021/04/23 12:08:31;;;;;;;14.80;4.62;;;;;;;18.30;63.34;100026.19;1769556;80;21255;-76
2021/04/23 12:11:06;;;;;;;19.37;4.67;;;;;;;17.97;64.88;100059.23;1762462;81;21101;-73
2021/04/23 12:13:39;;;;;;;7.67;4.00;;;;;;;17.81;68.37;100030.47;1694409;84;21188;-78
2021/04/23 12:16:14;;;;;;;8.48;3.80;;;;;;;17.67;72.72;100034.33;1697559;84;21183;-79
2021/04/23 12:18:47;;;;;;;8.35;3.80;;;;;;;17.56;65.31;100033.13;1697706;84;21597;-78
2021/04/23 12:21:20;;;;;;;12.07;4.60;;;;;;;17.50;68.73;100030.73;1687260;84;21113;-79
2021/04/23 12:23:49;;;;;;;10.68;4.80;;;;;;;17.49;65.92;100025.48;1672532;84;21197;-77
2021/04/23 12:26:18;;;;;;;19.27;4.80;;;;;;;17.45;67.67;100034.64;1635708;88;21670;-75
2021/04/23 12:28:50;;;;;;;11.80;4.35;;;;;;;17.44;65.37;100026.98;1701437;83;21359;-76
2021/04/23 12:31:25;;;;;;;20.43;4.62;;;;;;;17.30;64.30;100040.38;1689755;83;21122;-78
2021/04/23 12:33:58;;;;;;;10.45;4.50;;;;;;;17.13;62.66;100031.80;1691798;84;21345;-78
2021/04/23 12:36:36;;;;;;;16.65;8.33;;;;;;;17.03;65.55;100030.90;1690436;83;21164;-75
2021/04/23 12:42:01;;;;;;;9.03;4.28;;;;;;;16.86;65.64;100036.49;1848572;77;23002;-78
2021/04/23 12:44:34;;;;;;;6.25;4.00;;;;;;;16.69;68.16;100039.61;1808285;78;21109;-78
2021/04/23 12:47:13;;;;;;;9.10;4.37;;;;;;;16.50;79.73;100034.50;1722132;81;21599;-79
2021/04/23 12:49:43;;;;;;;11.80;4.58;;;;;;;16.39;83.90;100037.83;1717043;81;21232;-75
2021/04/23 12:52:20;;;;;;;8.60;4.10;;;;;;;16.28;83.21;100038.47;1720432;82;21152;-75
2021/04/23 12:55:00;;;;;;;10.80;4.28;;;;;;;16.14;85.79;100030.25;1831843;77;22939;-75
2021/04/23 12:57:30;;;;;;;10.32;4.67;;;;;;;16.01;87.89;100031.61;1770312;80;21264;-74
2021/04/23 13:00:11;;;;;;;11.50;4.70;;;;;;;15.96;91.75;100029.20;1796376;79;21110;-74
2021/04/23 13:02:41;;;;;;;13.30;4.92;;;;;;;15.92;92.82;100024.68;1796018;80;21332;-75
2021/04/23 13:05:17;;;;;;;10.32;4.80;;;;;;;15.87;91.60;100021.20;1800660;78;21549;-75
2021/04/23 13:07:55;;;;;;;11.20;5.05;;;;;;;15.83;83.91;100024.03;1754594;80;21607;-74
2021/04/23 13:10:29;;;;;;;11.15;4.40;;;;;;;15.74;85.29;100015.20;1766292;80;21565;-74
2021/04/23 13:13:06;;;;;;;8.23;4.75;;;;;;;15.78;84.88;100016.98;1766844;80;21305;-74
2021/04/23 13:15:38;;;;;;;7.65;4.33;;;;;;;15.77;85.74;100011.20;1767802;80;21305;-75
2021/04/23 13:18:23;;;;;;;4.60;3.95;;;;;;;15.77;87.11;100003.02;1770458;80;21105;-74
2021/04/23 13:21:04;;;;;;;6.92;4.35;;;;;;;15.80;86.37;100001.79;1784828;80;21291;-79
2021/04/23 13:23:47;;;;;;;10.53;4.55;;;;;;;15.87;81.63;99996.66;1784844;80;21184;-73
2021/04/23 13:26:29;;;;;;;7.62;4.58;;;;;;;15.94;81.36;100000.77;1767924;80;21151;-74
2021/04/23 13:29:06;;;;;;;13.95;4.58;;;;;;;16.11;82.19;99987.55;1762273;80;21152;-76
2021/04/23 13:31:35;;;;;;;7.78;4.35;;;;;;;16.18;80.11;99995.75;1750567;80;21133;-74
2021/04/23 13:34:07;;;;;;;10.18;4.17;;;;;;;16.18;84.52;99987.03;1757203;80;21155;-74
2021/04/23 13:36:52;;;;;;;16.02;4.95;;;;;;;16.21;87.46;99985.79;1834771;77;23043;-76
2021/04/23 13:39:20;;;;;;;36.60;6.90;;;;;;;16.13;91.20;99997.76;1751739;81;21710;-78
2021/04/23 13:41:49;;;;;;;12.95;4.37;;;;;;;16.08;95.10;99990.19;1745070;82;21659;-85
2021/04/23 13:44:19;;;;;;;8.20;4.70;;;;;;;15.99;97.19;99996.03;1739545;82;21212;-81
2021/04/23 13:46:56;;;;;;;12.93;4.70;;;;;;;15.85;98.67;99996.56;1735840;82;21184;-74
2021/04/23 13:49:36;;;;;;;6.22;4.55;;;;;;;15.72;100.00;99988.64;1789462;77;23122;-76
2021/04/23 13:52:13;;;;;;;8.25;4.40;;;;;;;15.63;100.00;99999.92;1760073;81;21133;-77
2021/04/23 13:54:42;;;;;;;7.65;4.92;;;;;;;15.54;100.00;100006.07;1753583;81;21113;-78
2021/04/23 13:57:14;;;;;;;14.20;5.28;;;;;;;15.44;100.00;100001.52;1680305;85;21129;-78
2021/04/23 13:59:42;;;;;;;8.23;5.08;;;;;;;15.33;100.00;100020.66;1743401;81;21145;-75
2021/04/23 14:02:19;;;;;;;9.13;4.95;;;;;;;15.20;100.00;99999.66;1766264;81;21164;-76
2021/04/23 14:04:48;;;;;;;7.12;5.30;;;;;;;15.08;100.00;100017.08;1758223;81;21535;-75
2021/04/23 14:07:19;;;;;;;12.63;6.05;;;;;;;14.90;100.00;99999.08;1702386;84;21168;-77
2021/04/23 14:09:49;;;;;;;8.13;4.95;;;;;;;14.73;100.00;100001.26;1767001;81;21583;-78
2021/04/23 14:12:20;;;;;;;7.35;5.20;;;;;;;14.59;100.00;99996.27;1740887;81;21263;-81
2021/04/23 14:14:49;;;;;;;9.15;5.00;;;;;;;14.41;100.00;99985.83;1745148;81;21260;-80
2021/04/23 14:17:20;;;;;;;6.87;4.90;;;;;;;14.31;100.00;99990.79;1760880;80;21090;-77
2021/04/23 14:19:52;;;;;;;11.70;5.60;;;;;;;14.23;100.00;99985.78;1747431;81;21172;-77
2021/04/23 14:22:20;;;;;;;9.48;5.28;;;;;;;14.15;100.00;99985.95;1754537;81;21102;-79
2021/04/23 14:24:48;;;;;;;10.30;5.45;;;;;;;14.13;100.00;99988.02;1774580;81;21133;-80
2021/04/23 14:27:22;;;;;;;;;;;;;;;14.17;100.00;99987.11;1753704;80;21551;-78
2021/04/23 14:29:51;;;;;;;8.78;5.55;;;;;;;14.19;100.00;99989.11;1771473;81;20207;-78
2021/04/23 14:32:19;;;;;;;12.75;5.50;;;;;;;14.21;100.00;99991.11;1695094;84;21200;-78
2021/04/23 14:34:48;;;;;;;13.80;5.50;;;;;;;14.22;100.00;99986.84;1722701;83;21117;-78
2021/04/23 14:37:17;;;;;;;8.98;5.22;;;;;;;14.28;100.00;99978.94;1719852;83;21121;-79
2021/04/23 14:39:45;;;;;;;14.90;5.72;;;;;;;14.29;100.00;99980.10;1714621;83;21259;-79
2021/04/23 14:42:13;;;;;;;8.33;5.40;;;;;;;14.29;100.00;99980.59;1717345;83;21169;-79
2021/04/23 14:44:42;;;;;;;8.40;5.62;;;;;;;14.29;100.00;99968.36;1722093;83;21745;-80
2021/04/23 14:47:09;;;;;;;11.30;5.83;;;;;;;14.31;100.00;99972.59;1719600;83;21310;-80
2021/04/23 14:49:39;;;;;;;16.93;5.90;;;;;;;14.34;100.00;99954.52;1704932;83;21162;-78
2021/04/23 14:52:07;;;;;;;12.05;5.28;;;;;;;14.38;100.00;99953.60;1691213;84;21137;-75
2021/04/23 14:54:35;;;;;;;10.82;5.78;;;;;;;14.39;100.00;99943.86;1707314;84;21327;-75
2021/04/23 14:57:06;;;;;;;9.55;5.30;;;;;;;14.39;100.00;99950.66;1729941;82;21148;-74
2021/04/23 14:59:34;;;;;;;12.82;6.20;;;;;;;14.39;100.00;99944.38;1727906;83;21646;-76
2021/04/23 15:02:02;;;;;;;9.65;5.37;;;;;;;14.39;100.00;99942.50;1697037;84;21283;-74
2021/04/23 15:04:29;;;;;;;13.68;5.45;;;;;;;14.38;100.00;99934.03;1706275;83;21190;-74
2021/04/23 15:06:59;;;;;;;10.63;5.55;;;;;;;14.40;100.00;99936.56;1740959;82;21688;-75
2021/04/23 15:09:30;;;;;;;8.20;5.22;;;;;;;14.40;100.00;99931.95;1743517;82;21140;-74
2021/04/23 15:11:59;;;;;;;9.10;5.35;;;;;;;14.40;100.00;99932.48;1743652;81;21144;-75
2021/04/23 15:14:28;;;;;;;11.00;5.90;;;;;;;14.39;100.00;99937.05;1743731;82;21570;-75
2021/04/23 15:16:55;;;;;;;11.35;5.30;;;;;;;14.36;100.00;99947.49;1746556;81;21171;-74
2021/04/23 15:19:23;;;;;;;15.48;5.40;;;;;;;14.31;100.00;99924.98;1747296;82;21316;-73
2021/04/23 15:21:51;;;;;;;14.00;5.30;;;;;;;14.22;100.00;99928.38;1747551;82;21303;-74
2021/04/23 15:24:19;;;;;;;11.43;5.67;;;;;;;14.18;100.00;99928.95;1747318;82;21574;-73
2021/04/23 15:26:47;;;;;;;11.33;5.60;;;;;;;14.14;100.00;99930.39;1747420;82;21302;-74
2021/04/23 15:29:14;;;;;;;8.53;5.40;;;;;;;14.11;100.00;99923.48;1746266;81;21132;-74
2021/04/23 15:31:43;;;;;;;11.12;5.17;;;;;;;14.07;100.00;99930.33;1747422;82;21343;-75
2021/04/23 15:34:12;;;;;;;9.50;5.10;;;;;;;14.01;100.00;99919.73;1746096;81;21286;-74
2021/04/23 15:36:40;;;;;;;8.50;5.47;;;;;;;13.98;100.00;99921.48;1746990;82;21160;-75
2021/04/23 15:39:08;;;;;;;7.92;5.33;;;;;;;13.94;100.00;99912.57;1747230;82;21111;-74
2021/04/23 15:41:37;;;;;;;8.43;4.92;;;;;;;13.90;100.00;99911.27;1758443;80;21276;-74
2021/04/23 15:44:06;;;;;;;8.15;4.60;;;;;;;13.88;100.00;99903.83;1762159;81;21292;-74
2021/04/23 15:46:36;;;;;;;7.08;4.50;;;;;;;13.86;100.00;99905.38;1761962;81;21322;-73
2021/04/23 15:49:06;;;;;;;10.68;4.53;;;;;;;13.86;100.00;99912.17;1769889;81;21174;-73
2021/04/23 15:51:35;;;;;;;10.55;4.87;;;;;;;13.83;100.00;99906.62;1697817;83;21313;-73
2021/04/23 15:54:04;;;;;;;8.95;4.95;;;;;;;13.79;100.00;99901.27;1744970;82;21178;-73
2021/04/23 15:56:31;;;;;;;9.58;4.83;;;;;;;13.75;100.00;99902.67;1757519;81;21545;-76
2021/04/23 15:59:01;;;;;;;10.30;5.60;;;;;;;13.70;100.00;99894.26;1703280;83;21292;-73
2021/04/23 16:01:28;;;;;;;8.55;4.58;;;;;;;13.68;100.00;99908.56;1762033;81;21130;-74
2021/04/23 16:03:57;;;;;;;7.33;4.97;;;;;;;13.64;100.00;99903.20;1760776;81;21289;-74
2021/04/23 16:06:25;;;;;;;5.97;4.67;;;;;;;13.59;100.00;99902.41;1741662;82;21160;-74
2021/04/23 16:08:54;;;;;;;11.35;5.20;;;;;;;13.56;100.00;99899.25;1753852;81;21163;-73
2021/04/23 16:11:24;;;;;;;8.83;5.20;;;;;;;13.51;100.00;99897.13;1755929;79;21172;-75
2021/04/23 16:13:53;;;;;;;12.70;5.33;;;;;;;13.44;100.00;99899.77;1758797;81;21192;-73
2021/04/23 16:16:21;;;;;;;9.73;5.80;;;;;;;13.40;100.00;99906.64;1759767;81;21730;-74
2021/04/23 16:18:51;;;;;;;6.03;4.90;;;;;;;13.33;100.00;99909.77;1762021;81;21275;-74
2021/04/23 16:21:21;;;;;;;8.70;5.08;;;;;;;13.28;100.00;99908.14;1769763;81;21149;-74
2021/04/23 16:23:50;;;;;;;10.45;5.42;;;;;;;13.24;100.00;99913.11;1769829;80;21118;-74
2021/04/23 16:26:17;;;;;;;7.62;5.40;;;;;;;13.19;100.00;99915.56;1762769;81;21572;-74
2021/04/23 16:28:48;;;;;;;12.73;6.15;;;;;;;13.14;100.00;99920.72;1762120;81;21142;-76
2021/04/23 16:31:17;;;;;;;10.53;5.62;;;;;;;13.06;100.00;99930.31;1762157;81;21604;-74
2021/04/23 16:33:45;;;;;;;11.90;5.83;;;;;;;12.99;100.00;99918.54;1762289;81;21147;-74
2021/04/23 16:36:13;;;;;;;10.53;5.78;;;;;;;12.91;100.00;99919.50;1648455;86;21196;-74
2021/04/23 16:38:41;;;;;;;11.30;6.35;;;;;;;12.86;100.00;99921.41;1686294;83;21106;-74
2021/04/23 16:41:10;;;;;;;12.03;6.20;;;;;;;12.80;100.00;99920.83;1751865;81;21138;-74
2021/04/23 16:43:38;;;;;;;8.53;6.28;;;;;;;12.73;100.00;99923.97;1762064;81;21142;-73
2021/04/23 16:46:06;;;;;;;9.00;6.10;;;;;;;12.63;100.00;99919.33;1769795;80;21165;-74
2021/04/23 16:48:34;;;;;;;11.25;6.60;;;;;;;12.50;100.00;99930.81;1696693;84;21131;-75
2021/04/23 16:51:01;;;;;;;9.98;6.37;;;;;;;12.39;100.00;99933.47;1762147;81;22284;-75
2021/04/23 16:53:31;;;;;;;11.95;7.08;;;;;;;12.28;100.00;99934.77;1769713;81;21622;-73
2021/04/23 16:55:59;;;;;;;12.53;7.03;;;;;;;12.19;100.00;99936.41;1762401;80;21139;-73
2021/04/23 16:58:27;;;;;;;12.40;7.00;;;;;;;12.13;100.00;99929.34;1761773;81;21146;-75
2021/04/23 17:00:54;;;;;;;11.22;7.17;;;;;;;12.12;100.00;99940.35;1696694;84;21175;-74
2021/04/23 17:03:23;;;;;;;15.28;11.75;;;;;;;12.09;100.00;99926.67;1696381;84;21203;-75
2021/04/23 17:05:55;;;;;;;13.80;7.60;;;;;;;12.10;100.00;99934.28;1761936;81;21268;-75
2021/04/23 17:08:23;;;;;;;12.73;6.67;;;;;;;12.10;100.00;99927.50;1762001;81;21170;-75
2021/04/23 17:10:53;;;;;;;12.28;7.25;;;;;;;12.09;100.00;99932.58;1762022;81;21158;-75
2021/04/23 17:13:21;;;;;;;12.55;7.53;;;;;;;12.05;100.00;99943.47;1769832;81;21145;-74
2021/04/23 17:15:49;;;;;;;10.43;6.87;;;;;;;11.98;100.00;99940.64;1768214;81;21604;-73
2021/04/23 17:18:17;;;;;;;16.07;8.50;;;;;;;11.83;100.00;99935.65;1744350;82;21274;-73
2021/04/23 17:20:46;;;;;;;14.47;7.65;;;;;;;11.68;100.00;99934.25;1754385;80;21147;-74
2021/04/23 17:23:13;;;;;;;13.43;7.50;;;;;;;11.59;100.00;99932.95;1741367;82;21266;-74
2021/04/23 17:25:41;;;;;;;11.15;7.28;;;;;;;11.52;100.00;99931.16;1753989;81;21581;-74
2021/04/23 17:28:10;;;;;;;13.05;7.53;;;;;;;11.47;100.00;99937.09;1745874;81;21171;-74
2021/04/23 17:30:38;;;;;;;12.47;7.85;;;;;;;11.44;100.00;99942.02;1766344;80;21135;-74
2021/04/23 17:33:05;;;;;;;14.68;8.95;;;;;;;11.40;100.00;99943.76;1753066;82;21569;-74
2021/04/23 17:35:35;;;;;;;17.52;9.43;;;;;;;11.37;100.00;99945.98;1740967;81;21151;-73
2021/04/23 17:38:03;;;;;;;16.77;9.08;;;;;;;11.34;100.00;99947.16;1754673;82;21120;-76
2021/04/23 17:40:31;;;;;;;13.93;7.95;;;;;;;11.30;100.00;99949.08;1754976;81;21149;-76
2021/04/23 17:42:59;;;;;;;15.88;9.50;;;;;;;11.27;100.00;99956.19;1770692;81;21654;-75
2021/04/23 17:45:28;;;;;;;15.40;8.70;;;;;;;11.23;100.00;99960.28;1771435;81;21623;-75
2021/04/23 17:47:55;;;;;;;14.43;9.48;;;;;;;11.18;100.00;99966.20;1771291;81;21137;-75
2021/04/23 17:50:23;;;;;;;16.45;10.23;;;;;;;11.13;100.00;99963.19;1780269;80;21148;-77
2021/04/23 17:52:52;;;;;;;16.73;9.78;;;;;;;11.07;100.00;99964.73;1775027;80;21643;-75
2021/04/23 17:55:19;;;;;;;14.65;8.48;;;;;;;10.99;100.00;99971.01;1704751;84;21130;-75
2021/04/23 17:57:47;;;;;;;14.63;8.78;;;;;;;10.94;100.00;99969.37;1770559;81;21280;-76
2021/04/23 18:00:18;;;;;;;14.93;9.35;;;;;;;10.87;100.00;99972.92;1704705;84;21146;-76
2021/04/23 18:02:45;;;;;;;13.93;9.58;;;;;;;10.80;100.00;99976.34;1770344;81;21156;-76
2021/04/23 18:05:14;;;;;;;17.32;10.10;;;;;;;10.72;100.00;99979.06;1770377;81;21098;-76
2021/04/23 18:07:42;;;;;;;19.52;11.63;;;;;;;10.68;100.00;99987.20;1704991;84;21584;-74
2021/04/23 18:10:11;;;;;;;21.12;12.45;;;;;;;10.62;100.00;99987.39;1704585;84;21135;-76
2021/04/23 18:12:40;;;;;;;16.90;10.72;;;;;;;10.57;100.00;99995.66;1770341;80;21627;-76
2021/04/23 18:15:10;;;;;;;19.82;10.08;;;;;;;10.51;100.00;99999.89;1704858;84;21157;-76
2021/04/23 18:17:38;;;;;;;15.40;8.58;;;;;;;10.42;100.00;99996.36;1770336;80;21576;-76
2021/04/23 18:20:07;;;;;;;13.18;7.08;;;;;;;10.36;100.00;99998.92;1704831;84;21158;-75
2021/04/23 18:22:35;;;;;;;8.73;5.30;;;;;;;10.26;100.00;99991.78;1770460;81;21102;-76
2021/04/23 18:25:06;;;;;;;8.90;5.33;;;;;;;10.18;100.00;99992.30;1770382;81;21284;-76
2021/04/23 18:27:34;;;;;;;8.18;5.20;;;;;;;10.09;100.00;99992.80;1642115;87;21606;-75
2021/04/23 18:30:02;;;;;;;9.20;4.80;;;;;;;10.02;100.00;99997.19;1637512;86;21172;-75
2021/04/23 18:32:29;;;;;;;8.65;4.90;;;;;;;9.97;100.00;99990.97;1642903;87;21199;-76
2021/04/23 18:34:57;;;;;;;10.05;4.78;;;;;;;9.92;100.00;99991.14;1645962;86;21124;-76
2021/04/23 18:37:25;;;;;;;12.43;5.28;;;;;;;9.85;100.00;99985.55;1671989;86;22323;-77
2021/04/23 18:39:54;;;;;;;8.70;4.62;;;;;;;9.78;100.00;99987.23;1670572;86;21227;-77
2021/04/23 18:42:22;;;;;;;8.40;4.20;;;;;;;9.74;100.00;99981.33;1643647;87;21132;-76
2021/04/23 18:44:50;;;;;;;8.60;4.87;;;;;;;9.71;100.00;99973.55;1643481;87;21179;-77
2021/04/23 18:47:17;;;;;;;5.83;4.43;;;;;;;9.68;100.00;99982.84;1638319;87;21192;-77
2021/04/23 18:49:45;;;;;;;7.92;4.60;;;;;;;9.63;100.00;99977.09;1641220;87;21152;-75
2021/04/23 18:52:14;;;;;;;9.10;5.05;;;;;;;9.58;100.00;99970.48;1646032;86;21164;-76
2021/04/23 18:54:42;;;;;;;9.18;4.90;;;;;;;9.56;100.00;99976.56;1612946;89;21691;-76
2021/04/23 18:57:11;;;;;;;6.27;4.40;;;;;;;9.54;100.00;99979.94;1658762;86;21137;-78
2021/04/23 18:59:38;;;;;;;11.80;6.30;;;;;;;9.49;100.00;99973.19;1599351;89;21268;-77
2021/04/23 19:02:06;;;;;;;12.43;6.90;;;;;;;9.45;100.00;99986.66;1600752;90;21192;-76
2021/04/23 19:04:34;;;;;;;15.85;7.10;;;;;;;9.43;100.00;99980.58;1642274;87;21262;-78
2021/04/23 19:07:02;;;;;;;8.77;5.27;;;;;;;9.40;100.00;99964.74;1625918;88;21145;-74
2021/04/23 19:09:30;;;;;;;11.10;5.12;;;;;;;9.37;100.00;99956.13;1625994;88;21223;-75
2021/04/23 19:11:58;;;;;;;9.50;5.43;;;;;;;9.31;100.00;99950.38;1625908;88;21153;-74
2021/04/23 19:14:26;;;;;;;8.80;5.15;;;;;;;9.28;100.00;99953.41;1625796;88;21716;-76
2021/04/23 19:16:54;;;;;;;7.00;4.07;;;;;;;9.25;100.00;99954.23;1625655;88;21121;-74
2021/04/23 19:19:22;;;;;;;6.63;4.17;;;;;;;9.22;100.00;99958.09;1625866;88;21225;-74
2021/04/23 19:21:56;;;;;;;6.30;4.60;;;;;;;9.22;100.00;99952.70;1625725;88;21219;-73
2021/04/23 19:24:19;;;;;;;6.63;4.53;;;;;;;9.19;100.00;99940.91;1680565;82;21308;-73
2021/04/23 19:26:47;;;;;;;5.83;4.83;;;;;;;9.17;100.00;99938.89;1757291;81;21150;-76
2021/04/23 19:29:15;;;;;;;6.77;4.90;;;;;;;9.15;100.00;99938.69;1696773;84;21158;-73
2021/04/23 19:31:43;;;;;;;7.67;4.60;;;;;;;9.13;100.00;99938.85;1696682;84;21182;-73
2021/04/23 19:34:11;;;;;;;6.10;4.50;;;;;;;9.12;100.00;99933.14;1693996;84;21147;-73
2021/04/23 19:36:39;;;;;;;6.50;4.40;;;;;;;9.11;100.00;99928.73;1743482;82;21121;-73
2021/04/23 19:39:07;;;;;;;5.97;4.13;;;;;;;9.09;100.00;99926.20;1737797;82;21145;-73
2021/04/23 19:41:35;;;;;;;9.10;4.50;;;;;;;9.07;100.00;99930.92;1739865;80;21580;-74
2021/04/23 19:44:04;;;;;;;5.67;4.50;;;;;;;9.02;100.00;99921.12;1733444;82;21146;-73
2021/04/23 19:46:32;;;;;;;5.50;4.03;;;;;;;9.01;100.00;99923.98;1733447;83;21575;-74
2021/04/23 19:49:00;;;;;;;8.77;4.47;;;;;;;8.99;100.00;99936.79;1733688;82;21201;-73
2021/04/23 19:51:27;;;;;;;5.47;4.30;;;;;;;8.96;100.00;99943.37;1736528;83;21138;-74
2021/04/23 19:53:56;;;;;;;5.00;4.50;;;;;;;8.95;100.00;99934.92;1743674;82;21137;-73
2021/04/23 19:56:24;;;;;;;6.87;5.03;;;;;;;8.94;100.00;99930.52;1752038;82;21132;-73
2021/04/23 19:58:54;;;;;;;5.90;4.80;;;;;;;8.91;100.00;99929.52;1752005;82;21511;-72
2021/04/23 20:01:22;;;;;;;6.77;4.53;;;;;;;8.89;100.00;99928.34;1752086;82;21165;-73
2021/04/23 20:03:51;;;;;;;5.20;4.70;;;;;;;8.87;100.00;99930.84;1751840;82;21160;-74
2021/04/23 20:06:20;;;;;;;5.83;4.53;;;;;;;8.86;100.00;99920.56;1731129;82;21263;-74
2021/04/23 20:08:49;;;;;;;6.03;4.83;;;;;;;8.85;100.00;99916.68;1741067;82;21478;-74
2021/04/23 20:11:16;;;;;;;7.23;5.17;;;;;;;8.84;100.00;99914.49;1741480;82;21133;-73
2021/04/23 20:13:45;;;;;;;7.53;5.70;;;;;;;8.81;100.00;99908.07;1741624;82;21548;-73
2021/04/23 20:16:14;;;;;;;6.43;5.00;;;;;;;8.81;100.00;99909.42;1741607;82;21189;-73
2021/04/23 20:18:42;;;;;;;5.30;4.70;;;;;;;8.81;100.00;99916.67;1741833;82;21584;-74
2021/04/23 20:21:10;;;;;;;5.97;4.50;;;;;;;8.80;100.00;99915.84;1741613;82;21094;-73
2021/04/23 20:23:38;;;;;;;5.97;4.93;;;;;;;8.80;100.00;99918.53;1741725;81;21562;-75
2021/04/23 20:26:05;;;;;;;7.57;5.67;;;;;;;8.80;100.00;99916.31;1741703;82;21129;-74
2021/04/23 20:28:33;;;;;;;7.80;5.27;;;;;;;8.79;100.00;99906.05;1741594;81;21185;-73
2021/04/23 20:31:01;;;;;;;7.80;5.30;;;;;;;8.80;100.00;99906.88;1741638;82;21133;-75
2021/04/23 20:33:28;;;;;;;7.43;5.10;;;;;;;8.80;100.00;99916.31;1741539;82;21137;-74
2021/04/23 20:35:58;;;;;;;5.93;4.57;;;;;;;8.77;100.00;99910.77;1741479;82;21125;-74
2021/04/23 20:38:26;;;;;;;9.57;5.00;;;;;;;8.75;100.00;99911.44;1741414;82;21189;-74
2021/04/23 20:40:54;;;;;;;7.50;5.07;;;;;;;8.73;100.00;99907.55;1741514;82;21161;-74
2021/04/23 20:43:21;;;;;;;8.13;5.40;;;;;;;8.76;100.00;99909.06;1741596;82;21137;-73
2021/04/23 20:45:49;;;;;;;10.63;5.63;;;;;;;8.77;100.00;99901.84;1741498;82;21279;-75
2021/04/23 20:48:17;;;;;;;10.73;5.70;;;;;;;8.78;100.00;99893.56;1741736;82;21528;-73
2021/04/23 20:50:46;;;;;;;10.60;5.30;;;;;;;8.79;100.00;99891.73;1743891;82;21571;-75
2021/04/23 20:53:13;;;;;;;7.83;5.40;;;;;;;8.78;100.00;99899.47;1741484;82;21130;-75
2021/04/23 20:55:41;;;;;;;8.87;5.30;;;;;;;8.79;100.00;99902.52;1741501;82;21193;-76
2021/04/23 20:58:09;;;;;;;10.70;6.30;;;;;;;8.77;100.00;99899.98;1741765;82;21133;-74
2021/04/23 21:00:37;;;;;;;13.07;7.57;;;;;;;8.79;100.00;99921.39;1741629;82;21568;-74
2021/04/23 21:03:05;;;;;;;17.33;8.10;;;;;;;8.69;100.00;99912.94;1741713;82;21106;-73
2021/04/23 21:05:34;;;;;;;9.97;6.10;;;;;;;8.50;100.00;99922.61;1741585;82;21335;-74
2021/04/23 21:08:03;;;;;;;9.60;5.07;;;;;;;8.27;100.00;99937.06;1741438;82;21204;-74
2021/04/23 21:10:30;;;;;;;7.43;4.80;;;;;;;8.06;100.00;99922.64;1741628;82;21599;-73
2021/04/23 21:12:58;;;;;;;7.07;4.80;;;;;;;7.91;100.00;99929.92;1741700;82;21110;-74
2021/04/23 21:15:28;;;;;;;9.10;4.47;;;;;;;7.78;100.00;99927.64;1741538;82;21118;-73
2021/04/23 21:17:55;;;;;;;3.33;3.00;;;;;;;7.70;100.00;99931.63;1741693;82;21520;-74
2021/04/23 21:20:25;;;;;;;4.53;3.70;;;;;;;7.62;100.00;99929.36;1741427;82;21299;-72
2021/04/23 21:22:53;;;;;;;4.40;3.20;;;;;;;7.53;100.00;99940.55;1741612;82;21149;-74